createdAt,value
2022-09-23T00:01:04.961Z,12.34
2022-09-23T00:03:32.949Z,12.33
2022-09-23T00:06:01.628Z,12.31
2022-09-23T00:08:28.825Z,12.25
2022-09-23T00:10:55.879Z,12.22
2022-09-23T00:13:24.675Z,12.22
2022-09-23T00:15:51.752Z,12.26
2022-09-23T00:18:18.354Z,12.23
2022-09-23T00:20:45.202Z,12.18
2022-09-23T00:23:11.830Z,12.10
2022-09-23T00:25:38.419Z,11.95
2022-09-23T00:28:05.252Z,11.87
2022-09-23T00:30:32.407Z,11.79
2022-09-23T00:32:58.906Z,11.71
2022-09-23T00:35:25.412Z,11.72
2022-09-23T00:37:51.954Z,11.70
2022-09-23T00:40:18.692Z,11.66
2022-09-23T00:42:47.778Z,11.67
2022-09-23T00:45:14.276Z,11.70
2022-09-23T00:48:01.352Z,11.68
2022-09-23T00:50:35.251Z,11.65
2022-09-23T00:53:05.582Z,11.68
2022-09-23T00:55:46.203Z,11.68
2022-09-23T00:58:17.776Z,11.67
2022-09-23T01:00:46.439Z,11.61
2022-09-23T01:03:13.895Z,11.58
2022-09-23T01:05:42.540Z,11.57
2022-09-23T01:08:11.943Z,11.62
2022-09-23T01:10:52.789Z,11.64
2022-09-23T01:13:37.993Z,11.62
2022-09-23T01:16:07.388Z,11.61
2022-09-23T01:18:37.310Z,11.63
2022-09-23T01:21:29.788Z,11.57
2022-09-23T01:24:21.690Z,11.56
2022-09-23T01:27:06.466Z,11.49
2022-09-23T01:29:51.577Z,11.45
2022-09-23T01:32:25.201Z,11.40
2022-09-23T01:35:14.287Z,11.43
2022-09-23T01:38:00.865Z,11.39
2022-09-23T01:40:45.893Z,11.36
2022-09-23T01:43:26.007Z,11.33
2022-09-23T01:45:59.859Z,11.28
2022-09-23T01:48:49.925Z,11.24
2022-09-23T01:51:29.261Z,11.24
2022-09-23T01:54:22.483Z,11.24
2022-09-23T01:56:52.306Z,11.18
2022-09-23T01:59:26.329Z,11.16
2022-09-23T02:02:03.715Z,11.15
2022-09-23T02:04:40.140Z,11.12
2022-09-23T02:07:15.144Z,11.06
2022-09-23T02:09:48.996Z,10.98
2022-09-23T02:12:20.278Z,10.95
2022-09-23T02:15:29.104Z,10.91
2022-09-23T02:18:03.317Z,10.91
2022-09-23T02:20:33.861Z,10.90
2022-09-23T02:23:07.566Z,10.88
2022-09-23T02:25:45.068Z,10.89
2022-09-23T02:28:19.005Z,10.93
2022-09-23T02:30:51.697Z,10.96
2022-09-23T02:33:36.858Z,10.95
2022-09-23T02:36:11.747Z,10.96
2022-09-23T02:38:49.900Z,10.95
2022-09-23T02:41:32.287Z,10.97
2022-09-23T02:44:12.268Z,11.00
2022-09-23T02:46:39.193Z,11.01
2022-09-23T02:49:17.476Z,11.02
2022-09-23T02:51:44.777Z,11.01
2022-09-23T02:54:16.623Z,11.00
2022-09-23T02:56:43.124Z,10.98
2022-09-23T02:59:10.929Z,10.93
2022-09-23T03:02:05.066Z,10.93
2022-09-23T03:04:58.458Z,10.95
2022-09-23T03:07:50.964Z,10.91
2022-09-23T03:10:35.875Z,10.84
2022-09-23T03:13:47.977Z,10.85
2022-09-23T03:16:31.829Z,10.81
2022-09-23T03:19:13.192Z,10.76
2022-09-23T03:22:07.205Z,10.69
2022-09-23T03:24:36.114Z,10.65
2022-09-23T03:27:05.309Z,10.68
2022-09-23T03:29:33.928Z,10.67
2022-09-23T03:32:00.786Z,10.72
2022-09-23T03:34:31.400Z,10.74
2022-09-23T03:37:07.811Z,10.75
2022-09-23T03:39:36.970Z,10.77
2022-09-23T03:42:30.066Z,10.75
2022-09-23T03:44:57.464Z,10.72
2022-09-23T03:47:28.742Z,10.72
2022-09-23T03:49:56.730Z,10.72
2022-09-23T03:52:25.302Z,10.77
2022-09-23T03:54:52.766Z,10.80
2022-09-23T03:57:23.889Z,10.83
2022-09-23T03:59:51.410Z,10.84
2022-09-23T04:02:19.643Z,10.84
2022-09-23T04:04:46.188Z,10.85
2022-09-23T04:07:13.557Z,10.85
2022-09-23T04:09:40.462Z,10.79
2022-09-23T04:12:07.604Z,10.71
2022-09-23T04:14:34.139Z,10.68
2022-09-23T04:17:00.621Z,10.65
2022-09-23T04:19:27.133Z,10.65
2022-09-23T04:21:53.664Z,10.65
2022-09-23T04:24:20.464Z,10.62
2022-09-23T04:26:51.344Z,10.59
2022-09-23T04:29:17.978Z,10.61
2022-09-23T04:31:44.619Z,10.64
2022-09-23T04:34:11.309Z,10.66
2022-09-23T04:36:37.937Z,10.64
2022-09-23T04:39:05.652Z,10.65
2022-09-23T04:41:32.188Z,10.69
2022-09-23T04:43:58.730Z,10.69
2022-09-23T04:46:25.417Z,10.67
2022-09-23T04:48:52.120Z,10.64
2022-09-23T04:51:21.303Z,10.64
2022-09-23T04:53:50.607Z,10.66
2022-09-23T04:56:20.436Z,10.66
2022-09-23T04:58:47.947Z,10.68
2022-09-23T05:01:23.831Z,10.65
2022-09-23T05:03:52.099Z,10.63
2022-09-23T05:06:20.407Z,10.69
2022-09-23T05:08:50.018Z,10.69
2022-09-23T05:11:17.919Z,10.74
2022-09-23T05:13:46.729Z,10.87
2022-09-23T05:16:13.664Z,10.90
2022-09-23T05:18:42.870Z,10.91
2022-09-23T05:21:11.388Z,10.92
2022-09-23T05:23:38.613Z,10.89
2022-09-23T05:26:08.457Z,11.00
2022-09-23T05:28:37.425Z,11.06
2022-09-23T05:31:05.305Z,11.13
2022-09-23T05:33:33.206Z,11.23
2022-09-23T05:36:01.238Z,11.20
2022-09-23T05:38:29.325Z,11.23
2022-09-23T05:41:00.945Z,11.26
2022-09-23T05:43:27.566Z,11.38
2022-09-23T05:46:09.364Z,11.50
2022-09-23T05:48:37.428Z,11.61
2022-09-23T05:51:09.069Z,11.75
2022-09-23T05:53:37.026Z,11.90
2022-09-23T05:58:31.148Z,12.88
2022-09-23T06:00:58.034Z,13.58
2022-09-23T06:03:25.611Z,14.11
2022-09-23T06:05:55.949Z,14.20
2022-09-23T06:08:23.478Z,14.38
2022-09-23T06:10:54.377Z,14.73
2022-09-23T06:13:21.224Z,15.23
2022-09-23T06:15:48.542Z,15.79
2022-09-23T06:18:15.165Z,16.23
2022-09-23T06:20:41.695Z,16.65
2022-09-23T06:23:10.961Z,16.91
2022-09-23T06:25:40.708Z,17.06
2022-09-23T06:28:10.773Z,17.21
2022-09-23T06:30:37.307Z,17.19
2022-09-23T06:33:03.799Z,17.09
2022-09-23T06:35:32.512Z,17.13
2022-09-23T06:37:59.077Z,17.35
2022-09-23T06:40:25.725Z,17.93
2022-09-23T06:42:59.044Z,18.56
2022-09-23T06:45:25.953Z,18.97
2022-09-23T06:47:56.854Z,19.14
2022-09-23T06:50:28.043Z,19.30
2022-09-23T06:52:56.323Z,19.68
2022-09-23T06:55:24.857Z,19.84
2022-09-23T06:57:51.278Z,20.22
2022-09-23T07:00:18.410Z,20.91
2022-09-23T07:02:45.196Z,20.87
2022-09-23T07:05:12.541Z,21.29
2022-09-23T07:07:39.418Z,21.30
2022-09-23T07:10:07.227Z,20.98
2022-09-23T07:12:33.896Z,21.72
2022-09-23T07:15:00.418Z,22.45
2022-09-23T07:17:27.070Z,23.04
2022-09-23T07:19:54.944Z,23.01
2022-09-23T07:22:26.494Z,23.44
2022-09-23T07:24:56.829Z,23.36
2022-09-23T07:27:25.052Z,23.66
2022-09-23T07:29:52.490Z,22.36
2022-09-23T07:32:22.075Z,22.13
2022-09-23T07:34:49.187Z,22.94
2022-09-23T07:37:17.287Z,21.97
2022-09-23T07:39:44.549Z,22.17
2022-09-23T07:42:13.267Z,22.67
2022-09-23T07:44:45.203Z,22.03
2022-09-23T07:47:11.677Z,23.22
2022-09-23T07:49:38.467Z,23.64
2022-09-23T07:52:05.167Z,23.44
2022-09-23T07:54:32.562Z,22.66
2022-09-23T07:56:59.830Z,23.48
2022-09-23T07:59:27.250Z,23.55
2022-09-23T08:01:54.911Z,24.19
2022-09-23T08:04:22.963Z,25.24
2022-09-23T08:06:50.986Z,25.48
2022-09-23T08:09:19.483Z,26.26
2022-09-23T08:11:46.512Z,25.28
2022-09-23T08:14:14.556Z,25.54
2022-09-23T08:16:41.194Z,25.69
2022-09-23T08:19:08.584Z,26.76
2022-09-23T08:21:35.272Z,27.03
2022-09-23T08:24:01.965Z,27.31
2022-09-23T08:26:28.665Z,26.63
2022-09-23T08:28:56.452Z,27.19
2022-09-23T08:31:23.164Z,25.96
2022-09-23T08:33:59.607Z,27.28
2022-09-23T08:36:26.370Z,27.11
2022-09-23T08:38:53.132Z,27.30
2022-09-23T08:42:04.027Z,26.26
2022-09-23T08:44:57.099Z,25.05
2022-09-23T08:47:28.127Z,26.01
2022-09-23T08:50:02.774Z,26.74
2022-09-23T08:52:35.859Z,27.18
2022-09-23T08:55:04.304Z,27.50
2022-09-23T08:58:24.854Z,26.55
2022-09-23T09:00:59.746Z,26.97
2022-09-23T09:03:36.683Z,26.74
2022-09-23T09:06:03.445Z,28.03
2022-09-23T09:08:36.663Z,28.18
2022-09-23T09:11:03.417Z,27.32
2022-09-23T09:13:33.305Z,28.32
2022-09-23T09:16:55.658Z,28.66
2022-09-23T09:19:20.959Z,28.34
2022-09-23T09:21:53.614Z,28.34
2022-09-23T09:24:33.956Z,27.62
2022-09-23T09:27:12.740Z,27.43
2022-09-23T09:29:49.904Z,27.71
2022-09-23T09:32:35.915Z,27.33
2022-09-23T09:35:15.901Z,27.41
2022-09-23T09:37:47.576Z,27.06
2022-09-23T09:40:20.334Z,26.81
2022-09-23T09:42:49.607Z,28.10
2022-09-23T09:45:57.808Z,28.18
2022-09-23T09:48:40.079Z,28.69
2022-09-23T09:51:24.249Z,28.68
2022-09-23T09:53:55.073Z,28.35
2022-09-23T09:56:32.263Z,28.65
2022-09-23T09:59:13.745Z,28.66
2022-09-23T10:01:40.395Z,29.16
2022-09-23T10:04:23.199Z,28.70
2022-09-23T10:07:07.145Z,26.98
2022-09-23T10:09:36.821Z,27.04
2022-09-23T10:12:14.866Z,27.73
2022-09-23T10:14:52.544Z,28.02
2022-09-23T10:17:32.945Z,27.92
2022-09-23T10:20:09.061Z,28.46
2022-09-23T10:22:39.713Z,28.04
2022-09-23T10:25:17.258Z,27.92
2022-09-23T10:27:45.511Z,27.87
2022-09-23T10:30:22.374Z,27.87
2022-09-23T10:32:50.862Z,27.54
2022-09-23T10:35:24.452Z,27.79
2022-09-23T10:37:55.751Z,27.70
2022-09-23T10:40:59.304Z,27.54
2022-09-23T10:44:09.401Z,26.60
2022-09-23T10:46:45.953Z,26.44
2022-09-23T10:49:44.849Z,26.10
2022-09-23T10:52:32.736Z,26.12
2022-09-23T10:55:07.494Z,25.96
2022-09-23T10:57:55.254Z,25.61
2022-09-23T11:00:53.187Z,24.57
2022-09-23T11:03:40.912Z,24.60
2022-09-23T11:06:33.697Z,24.36
2022-09-23T11:09:21.257Z,23.91
2022-09-23T11:11:54.884Z,24.47
2022-09-23T11:14:30.707Z,24.64
2022-09-23T11:17:06.054Z,24.73
2022-09-23T11:20:04.685Z,24.65
2022-09-23T11:23:17.044Z,24.64
2022-09-23T11:25:59.909Z,24.45
2022-09-23T11:28:55.353Z,24.82
2022-09-23T11:32:02.801Z,24.58
2022-09-23T11:34:52.567Z,24.93
2022-09-23T11:37:29.521Z,25.09
2022-09-23T11:40:17.046Z,24.86
2022-09-23T11:42:52.987Z,24.56
2022-09-23T11:45:27.640Z,24.46
2022-09-23T11:48:13.952Z,24.54
2022-09-23T11:50:58.973Z,24.68
2022-09-23T11:53:47.210Z,24.19
2022-09-23T11:56:59.480Z,24.02
2022-09-23T11:59:51.796Z,24.43
2022-09-23T12:02:30.899Z,24.40
2022-09-23T12:05:08.389Z,24.16
2022-09-23T12:08:02.895Z,23.94
2022-09-23T12:10:54.144Z,24.15
2022-09-23T12:13:29.097Z,24.34
2022-09-23T12:16:26.041Z,24.07
2022-09-23T12:19:23.085Z,24.34
2022-09-23T12:21:52.116Z,24.44
2022-09-23T12:24:38.390Z,24.56
2022-09-23T12:27:10.987Z,24.37
2022-09-23T12:29:41.072Z,24.42
2022-09-23T12:32:11.397Z,24.35
2022-09-23T12:34:49.302Z,23.77
2022-09-23T12:37:34.142Z,24.30
2022-09-23T12:40:08.482Z,24.37
2022-09-23T12:42:41.444Z,24.11
2022-09-23T12:45:18.419Z,24.37
2022-09-23T12:47:46.341Z,24.40
2022-09-23T12:50:59.452Z,24.18
2022-09-23T12:53:35.464Z,24.35
2022-09-23T12:56:19.483Z,24.33
2022-09-23T12:58:50.237Z,24.26
2022-09-23T13:01:21.577Z,24.37
2022-09-23T13:04:18.335Z,24.66
2022-09-23T13:07:07.142Z,24.58
2022-09-23T13:09:42.745Z,24.49
2022-09-23T13:12:32.864Z,24.36
2022-09-23T13:15:03.622Z,23.88
2022-09-23T13:17:37.841Z,24.26
2022-09-23T13:20:26.069Z,24.00
2022-09-23T13:22:52.750Z,24.29
2022-09-23T13:25:26.755Z,23.54
2022-09-23T13:28:01.151Z,24.14
2022-09-23T13:30:28.323Z,23.69
2022-09-23T13:33:16.330Z,23.35
2022-09-23T13:35:51.704Z,23.77
2022-09-23T13:38:26.036Z,23.95
2022-09-23T13:41:01.960Z,23.96
2022-09-23T13:43:31.856Z,23.39
2022-09-23T13:46:01.014Z,22.81
2022-09-23T13:48:28.532Z,22.75
2022-09-23T13:50:56.167Z,22.96
2022-09-23T13:53:22.735Z,23.12
2022-09-23T13:56:13.012Z,22.84
2022-09-23T13:58:39.793Z,22.92
2022-09-23T14:01:21.076Z,23.37
2022-09-23T14:03:47.632Z,23.47
2022-09-23T14:06:16.354Z,23.31
2022-09-23T14:08:48.252Z,23.51
2022-09-23T14:11:42.512Z,23.50
2022-09-23T14:14:14.891Z,23.37
2022-09-23T14:16:42.370Z,23.35
2022-09-23T14:19:19.091Z,23.16
2022-09-23T14:21:51.471Z,23.14
2022-09-23T14:24:19.882Z,23.06
2022-09-23T14:27:06.490Z,22.78
2022-09-23T14:29:35.969Z,22.34
2022-09-23T14:32:06.586Z,22.33
2022-09-23T14:34:52.282Z,22.41
2022-09-23T14:37:37.351Z,22.47
2022-09-23T14:40:09.431Z,22.23
2022-09-23T14:42:43.708Z,22.28
2022-09-23T14:45:25.557Z,22.40
2022-09-23T14:47:58.643Z,22.47
2022-09-23T14:50:39.329Z,22.71
2022-09-23T14:53:28.600Z,22.81
2022-09-23T14:56:07.861Z,22.54
2022-09-23T14:58:54.444Z,22.72
2022-09-23T15:01:35.820Z,22.92
2022-09-23T15:04:14.617Z,23.02
2022-09-23T15:06:46.871Z,22.88
2022-09-23T15:09:20.674Z,22.61
2022-09-23T15:11:48.251Z,22.76
2022-09-23T15:14:36.623Z,22.73
2022-09-23T15:17:04.233Z,22.57
2022-09-23T15:19:31.634Z,22.56
2022-09-23T15:21:58.378Z,22.70
2022-09-23T15:25:16.678Z,22.77
2022-09-23T15:28:15.846Z,22.91
2022-09-23T15:30:42.792Z,22.74
2022-09-23T15:33:14.903Z,22.84
2022-09-23T15:35:47.576Z,22.73
2022-09-23T15:38:14.297Z,22.62
2022-09-23T15:40:41.422Z,22.33
2022-09-23T15:43:21.733Z,22.31
2022-09-23T15:45:51.970Z,22.39
2022-09-23T15:48:27.834Z,22.30
2022-09-23T15:50:54.815Z,22.39
2022-09-23T15:53:27.162Z,22.49
2022-09-23T15:55:54.301Z,22.43
2022-09-23T15:58:22.650Z,22.39
2022-09-23T16:00:56.336Z,22.43
2022-09-23T16:03:28.630Z,22.40
2022-09-23T16:06:00.693Z,22.29
2022-09-23T16:08:28.726Z,22.22
2022-09-23T16:10:55.504Z,22.10
2022-09-23T16:13:22.276Z,22.09
2022-09-23T16:15:48.938Z,22.04
2022-09-23T16:18:15.592Z,21.93
2022-09-23T16:20:47.750Z,21.95
2022-09-23T16:23:37.106Z,21.83
2022-09-23T16:26:08.454Z,21.79
2022-09-23T16:28:35.055Z,21.68
2022-09-23T16:31:01.689Z,21.62
2022-09-23T16:33:28.228Z,21.49
2022-09-23T16:35:55.425Z,21.41
2022-09-23T16:38:21.982Z,21.29
2022-09-23T16:40:48.567Z,21.24
2022-09-23T16:43:15.289Z,21.09
2022-09-23T16:45:41.879Z,20.95
2022-09-23T16:48:09.044Z,20.84
2022-09-23T16:50:35.589Z,20.88
2022-09-23T16:53:02.150Z,20.78
2022-09-23T16:55:28.934Z,20.72
2022-09-23T16:57:55.725Z,20.61
2022-09-23T17:00:41.947Z,20.56
2022-09-23T17:03:30.886Z,20.45
2022-09-23T17:05:58.379Z,20.36
2022-09-23T17:08:24.906Z,20.19
2022-09-23T17:10:59.324Z,20.19
2022-09-23T17:13:27.378Z,20.07
2022-09-23T17:15:54.788Z,20.01
2022-09-23T17:18:21.690Z,19.95
2022-09-23T17:20:59.530Z,19.89
2022-09-23T17:23:44.885Z,19.78
2022-09-23T17:26:12.547Z,19.67
2022-09-23T17:28:39.090Z,19.62
2022-09-23T17:31:07.280Z,19.54
2022-09-23T17:33:37.923Z,19.42
2022-09-23T17:36:09.420Z,19.35
2022-09-23T17:38:36.717Z,19.27
2022-09-23T17:41:04.883Z,19.17
2022-09-23T17:43:33.596Z,19.10
2022-09-23T17:46:07.115Z,18.99
2022-09-23T17:48:35.877Z,18.80
2022-09-23T17:51:07.020Z,18.78
2022-09-23T17:53:39.109Z,18.66
2022-09-23T17:56:20.659Z,18.53
2022-09-23T17:58:48.924Z,18.44
2022-09-23T18:01:21.814Z,18.31
2022-09-23T18:03:52.872Z,18.22
2022-09-23T18:06:22.209Z,18.06
2022-09-23T18:08:50.615Z,18.09
2022-09-23T18:11:17.197Z,17.99
2022-09-23T18:13:51.791Z,17.78
2022-09-23T18:16:20.097Z,17.67
2022-09-23T18:18:56.165Z,17.55
2022-09-23T18:21:24.725Z,17.46
2022-09-23T18:23:51.687Z,17.44
2022-09-23T18:29:17.027Z,17.25
2022-09-23T18:31:47.674Z,17.22
2022-09-23T18:34:19.852Z,17.12
2022-09-23T18:36:46.793Z,17.13
2022-09-23T18:39:13.622Z,17.12
2022-09-23T18:41:46.627Z,17.06
2022-09-23T18:44:14.798Z,17.08
2022-09-23T18:46:47.551Z,17.08
2022-09-23T18:49:33.660Z,17.06
2022-09-23T18:52:00.329Z,17.03
2022-09-23T18:54:28.894Z,17.03
2022-09-23T18:56:56.042Z,17.02
2022-09-23T18:59:25.963Z,16.97
2022-09-23T19:01:55.564Z,16.76
2022-09-23T19:04:26.081Z,16.74
2022-09-23T19:06:54.895Z,16.68
2022-09-23T19:09:21.543Z,16.68
2022-09-23T19:11:52.195Z,16.59
2022-09-23T19:14:20.926Z,16.57
2022-09-23T19:16:52.140Z,16.50
2022-09-23T19:19:20.320Z,16.33
2022-09-23T19:21:48.955Z,16.25
2022-09-23T19:24:19.887Z,16.17
2022-09-23T19:26:48.649Z,15.88
2022-09-23T19:29:24.301Z,15.85
2022-09-23T19:31:51.167Z,15.91
2022-09-23T19:34:28.797Z,15.93
2022-09-23T19:36:57.965Z,15.88
2022-09-23T19:39:32.193Z,15.96
2022-09-23T19:42:02.180Z,15.94
2022-09-23T19:44:29.978Z,15.98
2022-09-23T19:46:59.487Z,15.94
2022-09-23T19:49:30.762Z,16.02
2022-09-23T19:51:57.736Z,15.98
2022-09-23T19:54:26.759Z,16.10
2022-09-23T19:56:53.984Z,16.08
2022-09-23T19:59:21.142Z,16.03
2022-09-23T20:01:51.786Z,16.10
2022-09-23T20:04:22.423Z,16.09
2022-09-23T20:06:50.268Z,16.11
2022-09-23T20:09:22.500Z,16.14
2022-09-23T20:11:50.581Z,16.02
2022-09-23T20:14:19.824Z,16.00
2022-09-23T20:16:47.140Z,15.76
2022-09-23T20:19:14.374Z,15.55
2022-09-23T20:21:46.276Z,15.65
2022-09-23T20:24:16.848Z,15.72
2022-09-23T20:27:05.062Z,15.66
2022-09-23T20:29:33.223Z,15.66
2022-09-23T20:32:00.437Z,15.67
2022-09-23T20:34:31.901Z,15.70
2022-09-23T20:37:00.944Z,15.69
2022-09-23T20:39:30.136Z,15.63
2022-09-23T20:41:56.928Z,15.69
2022-09-23T20:44:24.652Z,15.64
2022-09-23T20:46:51.595Z,15.63
2022-09-23T20:49:20.885Z,15.70
2022-09-23T20:51:48.921Z,15.81
2022-09-23T20:54:19.594Z,15.82
2022-09-23T20:56:47.941Z,15.85
2022-09-23T20:59:17.598Z,15.90
2022-09-23T21:01:47.697Z,15.96
2022-09-23T21:04:15.824Z,16.02
2022-09-23T21:06:42.470Z,16.11
2022-09-23T21:09:09.106Z,16.19
2022-09-23T21:11:35.688Z,16.22
2022-09-23T21:14:04.340Z,16.19
2022-09-23T21:16:31.105Z,16.14
2022-09-23T21:18:58.928Z,16.12
2022-09-23T21:21:26.389Z,16.13
2022-09-23T21:23:53.129Z,16.11
2022-09-23T21:26:24.931Z,16.07
2022-09-23T21:28:57.795Z,16.13
2022-09-23T21:31:32.289Z,16.07
2022-09-23T21:34:01.475Z,16.03
2022-09-23T21:36:30.616Z,16.05
2022-09-23T21:38:58.101Z,16.04
2022-09-23T21:41:25.555Z,16.05
2022-09-23T21:43:52.204Z,16.04
2022-09-23T21:46:20.590Z,16.02
2022-09-23T21:48:51.929Z,15.91
2022-09-23T21:51:24.273Z,15.84
2022-09-23T21:53:52.431Z,15.82
2022-09-23T21:56:26.605Z,15.81
2022-09-23T21:58:56.135Z,15.77
2022-09-23T22:01:28.480Z,15.79
2022-09-23T22:03:55.237Z,15.82
2022-09-23T22:06:24.432Z,15.84
2022-09-23T22:08:54.322Z,15.72
2022-09-23T22:11:42.493Z,15.78
2022-09-23T22:14:12.651Z,15.86
2022-09-23T22:16:40.311Z,15.99
2022-09-23T22:19:08.551Z,16.08
2022-09-23T22:21:38.120Z,16.07
2022-09-23T22:24:10.421Z,15.99
2022-09-23T22:26:42.275Z,16.04
2022-09-23T22:29:32.385Z,16.08
2022-09-23T22:32:19.476Z,15.97
2022-09-23T22:34:50.145Z,15.99
2022-09-23T22:37:21.300Z,16.00
2022-09-23T22:39:47.843Z,15.85
2022-09-23T22:42:14.435Z,16.01
2022-09-23T22:44:41.142Z,16.07
2022-09-23T22:47:08.149Z,16.14
2022-09-23T22:49:35.069Z,16.13
2022-09-23T22:52:04.030Z,16.21
2022-09-23T22:54:33.934Z,16.17
2022-09-23T22:57:03.434Z,16.11
2022-09-23T22:59:30.218Z,16.08
2022-09-23T23:02:00.218Z,16.13
2022-09-23T23:04:27.741Z,16.15
2022-09-23T23:06:54.251Z,16.12
2022-09-23T23:09:20.814Z,16.04
2022-09-23T23:11:47.594Z,16.04
2022-09-23T23:14:17.259Z,16.10
2022-09-23T23:22:05.026Z,16.20
2022-09-23T23:24:31.611Z,16.24
2022-09-23T23:26:58.368Z,16.27
2022-09-23T23:29:24.982Z,16.23
2022-09-23T23:31:51.595Z,16.17
2022-09-23T23:34:20.524Z,16.20
2022-09-23T23:36:54.405Z,16.22
2022-09-23T23:39:26.108Z,16.19
2022-09-23T23:41:57.729Z,16.20
2022-09-23T23:44:25.835Z,16.24
2022-09-23T23:46:53.690Z,16.26
2022-09-23T23:49:20.340Z,16.24
2022-09-23T23:51:47.894Z,16.25
2022-09-23T23:54:15.402Z,16.33
2022-09-23T23:56:42.503Z,16.43
2022-09-23T23:59:09.128Z,16.45
